createdAt,value
2022-09-12T00:01:28.086Z,89.53
2022-09-12T00:04:00.228Z,89.66
2022-09-12T00:06:29.588Z,89.91
2022-09-12T00:09:04.706Z,89.58
2022-09-12T00:11:32.201Z,89.72
2022-09-12T00:14:02.486Z,89.71
2022-09-12T00:16:33.174Z,89.54
2022-09-12T00:19:01.917Z,90.28
2022-09-12T00:21:29.760Z,90.31
2022-09-12T00:23:57.223Z,89.98
2022-09-12T00:26:24.665Z,90.44
2022-09-12T00:28:52.675Z,91.05
2022-09-12T00:31:25.274Z,90.96
2022-09-12T00:33:56.289Z,91.02
2022-09-12T00:36:25.975Z,90.96
2022-09-12T00:38:54.643Z,91.50
2022-09-12T00:41:32.346Z,91.09
2022-09-12T00:44:24.613Z,91.61
2022-09-12T00:46:54.543Z,91.16
2022-09-12T00:49:26.762Z,91.42
2022-09-12T00:52:07.202Z,91.23
2022-09-12T00:54:55.366Z,91.10
2022-09-12T00:57:29.777Z,91.36
2022-09-12T01:00:05.803Z,91.42
2022-09-12T01:02:33.200Z,91.69
2022-09-12T01:05:00.691Z,91.71
2022-09-12T01:07:28.911Z,91.90
2022-09-12T01:09:56.465Z,92.31
2022-09-12T01:12:24.459Z,92.60
2022-09-12T01:14:52.006Z,92.75
2022-09-12T01:17:19.411Z,92.92
2022-09-12T01:19:52.702Z,92.83
2022-09-12T01:23:03.110Z,93.09
2022-09-12T01:26:13.463Z,93.28
2022-09-12T01:29:00.577Z,93.34
2022-09-12T01:31:42.131Z,93.77
2022-09-12T01:34:56.811Z,93.45
2022-09-12T01:37:51.512Z,92.89
2022-09-12T01:40:26.373Z,93.46
2022-09-12T01:43:19.258Z,93.29
2022-09-12T01:46:03.396Z,93.18
2022-09-12T01:48:44.189Z,93.37
2022-09-12T01:51:27.636Z,93.94
2022-09-12T01:54:22.853Z,93.60
2022-09-12T01:56:58.597Z,93.87
2022-09-12T01:59:41.356Z,94.53
2022-09-12T02:02:27.803Z,94.49
2022-09-12T02:05:13.694Z,94.11
2022-09-12T02:07:51.811Z,94.24
2022-09-12T02:10:32.518Z,94.12
2022-09-12T02:13:13.171Z,93.94
2022-09-12T02:15:51.352Z,94.06
2022-09-12T02:18:21.145Z,94.23
2022-09-12T02:20:51.585Z,94.62
2022-09-12T02:23:31.883Z,94.47
2022-09-12T02:26:10.307Z,94.55
2022-09-12T02:28:43.060Z,94.58
2022-09-12T02:31:48.406Z,94.62
2022-09-12T02:34:44.635Z,94.52
2022-09-12T02:37:37.027Z,94.72
2022-09-12T02:40:06.998Z,94.85
2022-09-12T02:42:36.703Z,95.04
2022-09-12T02:45:04.965Z,95.02
2022-09-12T02:47:52.999Z,94.82
2022-09-12T02:50:21.873Z,94.70
2022-09-12T02:52:53.723Z,95.12
2022-09-12T02:55:21.545Z,95.31
2022-09-12T02:57:48.961Z,95.43
2022-09-12T03:00:16.504Z,95.27
2022-09-12T03:03:02.440Z,95.22
2022-09-12T03:05:59.056Z,95.76
2022-09-12T03:09:05.760Z,95.69
2022-09-12T03:11:47.675Z,95.82
2022-09-12T03:14:46.718Z,95.31
2022-09-12T03:17:37.375Z,95.53
2022-09-12T03:20:18.972Z,95.22
2022-09-12T03:23:00.967Z,95.66
2022-09-12T03:25:50.013Z,95.42
2022-09-12T03:28:21.194Z,95.50
2022-09-12T03:30:51.485Z,95.75
2022-09-12T03:33:23.959Z,95.72
2022-09-12T03:35:53.226Z,95.90
2022-09-12T03:38:20.836Z,95.23
2022-09-12T03:40:52.714Z,95.52
2022-09-12T03:43:22.159Z,95.91
2022-09-12T03:45:53.429Z,96.01
2022-09-12T03:48:22.089Z,95.79
2022-09-12T03:50:49.486Z,95.63
2022-09-12T03:53:17.581Z,96.17
2022-09-12T03:55:45.401Z,95.67
2022-09-12T03:58:12.779Z,95.90
2022-09-12T04:00:40.919Z,96.79
2022-09-12T04:03:09.184Z,96.34
2022-09-12T04:05:36.784Z,96.88
2022-09-12T04:08:04.174Z,96.39
2022-09-12T04:10:32.437Z,96.60
2022-09-12T04:12:59.826Z,96.52
2022-09-12T04:15:27.216Z,96.71
2022-09-12T04:17:54.708Z,96.77
2022-09-12T04:20:22.239Z,96.68
2022-09-12T04:22:49.604Z,96.82
2022-09-12T04:25:17.307Z,97.17
2022-09-12T04:27:44.715Z,97.41
2022-09-12T04:30:12.803Z,97.27
2022-09-12T04:32:41.350Z,96.75
2022-09-12T04:35:08.974Z,97.39
2022-09-12T04:37:36.435Z,96.96
2022-09-12T04:40:04.170Z,97.42
2022-09-12T04:42:31.632Z,97.25
2022-09-12T04:44:59.093Z,97.37
2022-09-12T04:47:26.482Z,97.22
2022-09-12T04:49:54.028Z,97.80
2022-09-12T04:52:21.476Z,97.57
2022-09-12T04:54:48.903Z,97.75
2022-09-12T04:57:16.550Z,97.57
2022-09-12T04:59:44.034Z,97.57
2022-09-12T05:02:11.498Z,97.72
2022-09-12T05:04:38.902Z,97.26
2022-09-12T05:07:06.563Z,97.63
2022-09-12T05:09:33.959Z,97.84
2022-09-12T05:12:05.488Z,98.24
2022-09-12T05:14:34.921Z,98.31
2022-09-12T05:17:04.607Z,98.69
2022-09-12T05:19:32.871Z,98.44
2022-09-12T05:22:00.601Z,97.93
2022-09-12T05:24:28.875Z,98.46
2022-09-12T05:26:56.368Z,98.20
2022-09-12T05:29:25.160Z,98.41
2022-09-12T05:31:52.904Z,98.78
2022-09-12T05:34:20.915Z,98.69
2022-09-12T05:36:49.077Z,98.82
2022-09-12T05:39:16.753Z,98.93
2022-09-12T05:41:44.412Z,98.96
2022-09-12T05:44:14.248Z,98.92
2022-09-12T05:46:46.594Z,99.06
2022-09-12T05:49:14.545Z,99.20
2022-09-12T05:51:45.818Z,99.06
2022-09-12T05:54:19.415Z,99.79
2022-09-12T05:56:48.985Z,99.77
2022-09-12T05:59:20.381Z,99.28
2022-09-12T06:01:48.905Z,99.57
2022-09-12T06:04:17.209Z,99.61
2022-09-12T06:06:45.876Z,99.87
2022-09-12T06:09:16.519Z,99.67
2022-09-12T06:11:46.286Z,100.00
2022-09-12T06:14:16.691Z,99.50
2022-09-12T06:16:44.515Z,100.00
2022-09-12T06:19:21.742Z,100.00
2022-09-12T06:21:49.897Z,100.00
2022-09-12T06:24:19.613Z,100.00
2022-09-12T06:26:48.762Z,100.00
2022-09-12T06:29:16.358Z,100.00
2022-09-12T06:31:46.064Z,100.00
2022-09-12T06:34:15.512Z,100.00
2022-09-12T06:36:46.706Z,100.00
2022-09-12T06:39:18.326Z,100.00
2022-09-12T06:41:46.489Z,100.00
2022-09-12T06:44:23.373Z,100.00
2022-09-12T06:46:51.412Z,100.00
2022-09-12T06:49:18.911Z,100.00
2022-09-12T06:51:46.309Z,100.00
2022-09-12T06:54:16.982Z,100.00
2022-09-12T06:56:45.815Z,100.00
2022-09-12T06:59:13.379Z,100.00
2022-09-12T07:01:41.624Z,100.00
2022-09-12T07:04:10.037Z,100.00
2022-09-12T07:06:41.549Z,100.00
2022-09-12T07:09:13.682Z,100.00
2022-09-12T07:11:43.260Z,100.00
2022-09-12T07:14:14.227Z,100.00
2022-09-12T07:16:42.873Z,100.00
2022-09-12T07:19:10.825Z,100.00
2022-09-12T07:21:40.457Z,100.00
2022-09-12T07:24:11.447Z,99.81
2022-09-12T07:26:41.886Z,99.30
2022-09-12T07:32:05.542Z,98.65
2022-09-12T07:34:34.248Z,98.99
2022-09-12T07:37:01.642Z,98.79
2022-09-12T07:39:29.003Z,98.11
2022-09-12T07:41:57.313Z,98.04
2022-09-12T07:44:26.884Z,97.21
2022-09-12T07:46:54.248Z,97.61
2022-09-12T07:49:21.750Z,97.50
2022-09-12T07:51:49.134Z,97.50
2022-09-12T07:54:17.572Z,97.37
2022-09-12T07:56:45.822Z,97.38
2022-09-12T07:59:13.583Z,96.49
2022-09-12T08:01:45.216Z,96.15
2022-09-12T08:04:12.593Z,96.01
2022-09-12T08:06:40.050Z,95.49
2022-09-12T08:09:08.046Z,95.67
2022-09-12T08:11:35.550Z,95.21
2022-09-12T08:14:05.520Z,94.87
2022-09-12T08:16:35.638Z,94.73
2022-09-12T08:19:04.403Z,94.27
2022-09-12T08:21:33.525Z,93.38
2022-09-12T08:24:06.698Z,93.19
2022-09-12T08:26:34.847Z,92.95
2022-09-12T08:29:02.452Z,92.38
2022-09-12T08:31:31.872Z,91.93
2022-09-12T08:34:00.788Z,91.31
2022-09-12T08:36:29.631Z,90.71
2022-09-12T08:39:01.336Z,89.98
2022-09-12T08:41:49.234Z,90.03
2022-09-12T08:44:43.833Z,89.71
2022-09-12T08:47:39.166Z,89.18
2022-09-12T08:50:12.126Z,88.90
2022-09-12T08:52:51.859Z,89.16
2022-09-12T08:55:59.474Z,87.15
2022-09-12T08:58:29.544Z,87.54
2022-09-12T09:01:28.890Z,86.87
2022-09-12T09:04:14.855Z,86.88
2022-09-12T09:06:54.422Z,86.36
2022-09-12T09:09:55.450Z,86.05
2022-09-12T09:12:36.465Z,86.09
2022-09-12T09:15:57.534Z,85.94
2022-09-12T09:18:33.670Z,85.38
2022-09-12T09:21:23.745Z,84.51
2022-09-12T09:24:05.085Z,83.79
2022-09-12T09:27:36.768Z,83.69
2022-09-12T09:30:03.822Z,83.33
2022-09-12T09:32:40.967Z,82.45
2022-09-12T09:35:37.877Z,82.65
2022-09-12T09:38:47.250Z,81.59
2022-09-12T09:41:34.664Z,81.17
2022-09-12T09:44:03.207Z,81.02
2022-09-12T09:46:32.199Z,80.67
2022-09-12T09:49:05.519Z,79.96
2022-09-12T09:51:39.647Z,79.63
2022-09-12T09:54:21.221Z,78.51
2022-09-12T09:56:48.936Z,79.90
2022-09-12T09:59:31.887Z,78.81
2022-09-12T10:02:14.444Z,77.81
2022-09-12T10:04:55.511Z,76.45
2022-09-12T10:07:25.897Z,76.45
2022-09-12T10:10:23.115Z,76.61
2022-09-12T10:12:51.442Z,76.27
2022-09-12T10:15:26.618Z,75.75
2022-09-12T10:17:57.076Z,76.38
2022-09-12T10:20:45.475Z,74.49
2022-09-12T10:23:19.144Z,73.52
2022-09-12T10:25:53.685Z,73.55
2022-09-12T10:28:31.844Z,73.54
2022-09-12T10:31:01.499Z,72.90
2022-09-12T10:33:29.946Z,72.30
2022-09-12T10:35:57.892Z,72.77
2022-09-12T10:38:32.207Z,72.10
2022-09-12T10:41:06.590Z,71.18
2022-09-12T10:43:33.969Z,70.71
2022-09-12T10:46:16.457Z,71.00
2022-09-12T10:48:45.825Z,70.81
2022-09-12T10:51:28.869Z,69.91
2022-09-12T10:54:00.578Z,69.89
2022-09-12T10:56:36.039Z,69.26
2022-09-12T10:59:35.967Z,68.90
2022-09-12T11:02:30.989Z,68.90
2022-09-12T11:05:12.802Z,68.96
2022-09-12T11:07:50.864Z,67.81
2022-09-12T11:10:51.849Z,64.45
2022-09-12T11:13:51.274Z,63.40
2022-09-12T11:16:55.402Z,64.60
2022-09-12T11:19:54.812Z,64.34
2022-09-12T11:22:47.641Z,65.10
2022-09-12T11:25:41.340Z,63.14
2022-09-12T11:28:36.034Z,63.29
2022-09-12T11:31:46.173Z,62.79
2022-09-12T11:34:29.677Z,63.05
2022-09-12T11:37:24.902Z,60.93
2022-09-12T11:39:55.990Z,59.82
2022-09-12T11:42:31.679Z,61.34
2022-09-12T11:45:28.942Z,62.82
2022-09-12T11:48:07.143Z,61.47
2022-09-12T11:50:34.622Z,60.68
2022-09-12T11:53:22.730Z,60.16
2022-09-12T11:56:04.582Z,59.84
2022-09-12T11:58:32.187Z,59.74
2022-09-12T12:01:22.941Z,59.69
2022-09-12T12:03:52.722Z,59.65
2022-09-12T12:06:31.438Z,59.54
2022-09-12T12:08:59.404Z,59.50
2022-09-12T12:11:37.146Z,57.90
2022-09-12T12:14:16.143Z,58.64
2022-09-12T12:16:44.352Z,57.93
2022-09-12T12:19:14.374Z,57.56
2022-09-12T12:21:50.862Z,56.94
2022-09-12T12:24:25.587Z,54.67
2022-09-12T12:26:53.007Z,56.22
2022-09-12T12:29:43.661Z,55.73
2022-09-12T12:32:11.515Z,52.99
2022-09-12T12:34:42.217Z,54.63
2022-09-12T12:37:18.596Z,55.04
2022-09-12T12:39:47.775Z,55.16
2022-09-12T12:42:36.264Z,56.01
2022-09-12T12:45:06.669Z,54.92
2022-09-12T12:47:49.484Z,55.10
2022-09-12T12:50:16.763Z,55.18
2022-09-12T12:52:51.867Z,53.55
2022-09-12T12:55:33.874Z,51.33
2022-09-12T12:58:04.603Z,52.57
2022-09-12T13:00:40.278Z,51.22
2022-09-12T13:03:29.463Z,52.26
2022-09-12T13:25:37.264Z,51.06
2022-09-12T13:28:15.289Z,51.25
2022-09-12T13:30:47.335Z,50.99
2022-09-12T13:33:45.181Z,51.89
2022-09-12T13:36:27.883Z,51.78
2022-09-12T13:48:40.590Z,50.28
2022-09-12T13:51:25.927Z,50.21
2022-09-12T14:02:41.599Z,50.77
2022-09-12T14:05:22.255Z,50.65
2022-09-12T14:08:02.796Z,50.85
2022-09-12T14:23:01.335Z,50.25
2022-09-12T14:25:44.292Z,48.98
2022-09-12T14:28:23.640Z,50.25
2022-09-12T14:34:16.139Z,50.52
2022-09-12T14:36:48.770Z,49.56
2022-09-12T14:39:32.739Z,50.00
2022-09-12T14:42:36.682Z,51.03
2022-09-12T14:45:33.826Z,50.51
2022-09-12T14:48:06.558Z,50.03
2022-09-12T14:51:08.790Z,49.09
2022-09-12T14:54:05.272Z,49.20
2022-09-12T15:03:38.448Z,49.35
2022-09-12T15:06:08.039Z,49.44
2022-09-12T15:08:35.659Z,48.90
2022-09-12T15:11:07.233Z,48.83
2022-09-12T15:13:41.745Z,49.47
2022-09-12T15:16:12.160Z,50.11
2022-09-12T15:18:39.860Z,50.24
2022-09-12T15:21:13.865Z,50.09
2022-09-12T15:23:47.966Z,50.11
2022-09-12T15:26:27.401Z,50.89
2022-09-12T15:28:54.766Z,50.34
2022-09-12T15:31:27.387Z,50.75
2022-09-12T15:33:57.356Z,51.14
2022-09-12T15:36:26.404Z,50.91
2022-09-12T15:38:53.798Z,49.89
2022-09-12T15:41:36.765Z,49.82
2022-09-12T15:44:08.212Z,50.69
2022-09-12T15:46:36.025Z,50.66
2022-09-12T15:49:03.600Z,50.27
2022-09-12T15:51:31.036Z,50.60
2022-09-12T15:54:04.303Z,50.54
2022-09-12T15:56:31.808Z,50.53
2022-09-12T15:59:00.192Z,50.61
2022-09-12T16:01:29.240Z,50.48
2022-09-12T16:03:57.455Z,49.53
2022-09-12T16:06:25.267Z,49.98
2022-09-12T16:08:52.817Z,50.04
2022-09-12T16:11:25.029Z,49.33
2022-09-12T16:13:54.191Z,49.59
2022-09-12T16:16:21.963Z,49.74
2022-09-12T16:18:49.686Z,49.45
2022-09-12T16:21:17.180Z,49.29
2022-09-12T16:23:46.601Z,49.48
2022-09-12T16:26:14.921Z,49.70
2022-09-12T16:28:43.236Z,48.74
2022-09-12T16:31:14.034Z,49.27
2022-09-12T16:33:41.915Z,48.69
2022-09-12T16:36:13.330Z,49.14
2022-09-12T16:38:50.143Z,48.68
2022-09-12T16:41:21.980Z,48.54
2022-09-12T16:43:49.425Z,48.04
2022-09-12T16:46:22.039Z,47.81
2022-09-12T16:48:54.370Z,48.35
2022-09-12T16:51:26.788Z,48.71
2022-09-12T16:53:55.478Z,48.95
2022-09-12T16:56:24.310Z,49.39
2022-09-12T16:58:51.965Z,49.44
2022-09-12T17:01:26.147Z,49.33
2022-09-12T17:03:56.757Z,49.56
2022-09-12T17:06:25.955Z,50.11
2022-09-12T17:08:57.830Z,50.39
2022-09-12T17:11:30.928Z,50.72
2022-09-12T17:14:06.219Z,51.00
2022-09-12T17:16:38.113Z,51.35
2022-09-12T17:19:06.556Z,51.90
2022-09-12T17:21:35.463Z,52.08
2022-09-12T17:24:03.535Z,52.34
2022-09-12T17:26:31.546Z,52.22
2022-09-12T17:28:59.109Z,52.44
2022-09-12T17:31:26.682Z,52.77
2022-09-12T17:33:58.990Z,52.98
2022-09-12T17:36:28.531Z,53.52
2022-09-12T17:38:56.084Z,53.26
2022-09-12T17:41:28.109Z,54.01
2022-09-12T17:43:57.928Z,54.14
2022-09-12T17:46:32.874Z,54.26
2022-09-12T17:49:02.563Z,54.60
2022-09-12T17:51:31.463Z,54.76
2022-09-12T17:54:06.649Z,55.24
2022-09-12T17:56:36.970Z,55.62
2022-09-12T17:59:06.632Z,55.88
2022-09-12T18:01:53.737Z,56.45
2022-09-12T18:04:21.151Z,57.08
2022-09-12T18:06:49.193Z,56.98
2022-09-12T18:09:23.282Z,57.67
2022-09-12T18:11:52.048Z,58.18
2022-09-12T18:14:20.795Z,57.89
2022-09-12T18:16:48.991Z,58.52
2022-09-12T18:19:16.708Z,58.82
2022-09-12T18:21:45.523Z,59.07
2022-09-12T18:24:13.362Z,59.78
2022-09-12T18:26:43.480Z,60.39
2022-09-12T18:29:14.284Z,60.28
2022-09-12T18:31:41.714Z,60.41
2022-09-12T18:34:13.595Z,61.20
2022-09-12T18:36:43.457Z,61.65
2022-09-12T18:39:12.239Z,61.80
2022-09-12T18:41:40.119Z,61.89
2022-09-12T18:44:08.290Z,62.51
2022-09-12T18:46:35.928Z,62.71
2022-09-12T18:49:04.619Z,63.74
2022-09-12T18:51:36.274Z,64.13
2022-09-12T18:54:08.691Z,63.92
2022-09-12T18:56:38.766Z,64.44
2022-09-12T18:59:07.625Z,64.78
2022-09-12T19:01:37.789Z,64.85
2022-09-12T19:04:07.569Z,65.36
2022-09-12T19:06:40.618Z,65.75
2022-09-12T19:09:09.598Z,66.07
2022-09-12T19:11:40.761Z,66.37
2022-09-12T19:14:08.367Z,66.17
2022-09-12T19:16:36.203Z,66.80
2022-09-12T19:19:04.126Z,67.21
2022-09-12T19:21:34.203Z,67.67
2022-09-12T19:24:06.348Z,67.99
2022-09-12T19:26:34.333Z,68.02
2022-09-12T19:29:02.980Z,68.33
2022-09-12T19:31:32.687Z,69.04
2022-09-12T19:34:06.574Z,68.91
2022-09-12T19:36:50.407Z,68.87
2022-09-12T19:39:19.675Z,69.09
2022-09-12T19:41:48.178Z,69.84
2022-09-12T19:44:15.886Z,70.19
2022-09-12T19:46:43.441Z,70.24
2022-09-12T19:49:12.783Z,70.35
2022-09-12T19:51:40.576Z,70.59
2022-09-12T19:54:08.100Z,71.16
2022-09-12T19:56:35.546Z,71.07
2022-09-12T19:59:03.114Z,71.24
2022-09-12T20:01:30.503Z,71.14
2022-09-12T20:03:59.275Z,71.65
2022-09-12T20:06:27.364Z,72.05
2022-09-12T20:08:55.924Z,71.54
2022-09-12T20:11:25.758Z,71.42
2022-09-12T20:13:53.506Z,72.74
2022-09-12T20:16:29.155Z,72.33
2022-09-12T20:19:00.849Z,72.29
2022-09-12T20:21:32.194Z,72.58
2022-09-12T20:24:09.675Z,71.51
2022-09-12T20:26:37.845Z,72.47
2022-09-12T20:29:06.592Z,73.24
2022-09-12T20:31:35.033Z,73.49
2022-09-12T20:34:02.812Z,73.54
2022-09-12T20:36:30.413Z,73.87
2022-09-12T20:39:01.168Z,74.60
2022-09-12T20:41:33.169Z,74.28
2022-09-12T20:44:00.838Z,74.93
2022-09-12T20:46:29.243Z,74.76
2022-09-12T20:48:58.362Z,75.25
2022-09-12T20:51:27.233Z,75.67
2022-09-12T20:53:57.113Z,75.50
2022-09-12T20:56:26.642Z,76.25
2022-09-12T20:58:55.501Z,76.42
2022-09-12T21:01:25.254Z,76.85
2022-09-12T21:03:53.810Z,76.70
2022-09-12T21:06:21.786Z,76.92
2022-09-12T21:08:50.626Z,76.85
2022-09-12T21:11:20.221Z,76.84
2022-09-12T21:13:47.858Z,76.76
2022-09-12T21:16:19.346Z,77.21
2022-09-12T21:18:47.268Z,76.22
2022-09-12T21:21:16.299Z,76.79
2022-09-12T21:23:44.448Z,76.62
2022-09-12T21:26:12.005Z,77.04
2022-09-12T21:28:39.425Z,77.67
2022-09-12T21:31:06.955Z,78.13
2022-09-12T21:33:34.560Z,77.61
2022-09-12T21:36:03.993Z,78.14
2022-09-12T21:38:33.511Z,78.43
2022-09-12T21:41:12.110Z,78.66
2022-09-12T21:43:40.528Z,78.92
2022-09-12T21:46:08.831Z,79.12
2022-09-12T21:48:37.448Z,79.61
2022-09-12T21:51:05.364Z,79.65
2022-09-12T21:53:33.990Z,79.47
2022-09-12T21:56:04.732Z,79.96
2022-09-12T21:58:32.220Z,79.61
2022-09-12T22:01:00.867Z,79.41
2022-09-12T22:03:29.582Z,80.23
2022-09-12T22:06:03.949Z,80.35
2022-09-12T22:08:33.600Z,80.79
2022-09-12T22:11:05.059Z,80.91
2022-09-12T22:13:32.575Z,80.68
2022-09-12T22:16:02.966Z,80.94
2022-09-12T22:18:36.545Z,81.25
2022-09-12T22:21:18.246Z,81.48
2022-09-12T22:24:04.195Z,80.44
2022-09-12T22:26:39.022Z,81.33
2022-09-12T22:29:06.462Z,81.64
2022-09-12T22:31:33.854Z,81.88
2022-09-12T22:34:01.291Z,81.62
2022-09-12T22:36:31.239Z,81.90
2022-09-12T22:39:00.175Z,82.07
2022-09-12T22:41:28.390Z,82.11
2022-09-12T22:43:57.745Z,81.71
2022-09-12T22:46:25.450Z,82.27
2022-09-12T22:48:52.874Z,82.60
2022-09-12T22:51:20.323Z,82.99
2022-09-12T22:53:47.757Z,82.51
2022-09-12T22:56:15.662Z,82.68
2022-09-12T22:58:43.769Z,82.84
2022-09-12T23:01:11.609Z,82.82
2022-09-12T23:03:40.057Z,83.15
2022-09-12T23:06:09.943Z,82.97
2022-09-12T23:08:39.770Z,83.44
2022-09-12T23:11:19.016Z,83.09
2022-09-12T23:13:49.340Z,83.42
2022-09-12T23:16:24.926Z,83.41
2022-09-12T23:18:52.735Z,83.34
2022-09-12T23:21:21.878Z,83.96
2022-09-12T23:23:50.313Z,83.72
2022-09-12T23:26:24.808Z,84.22
2022-09-12T23:28:59.241Z,84.20
2022-09-12T23:31:30.965Z,84.28
2022-09-12T23:34:03.634Z,84.30
2022-09-12T23:36:31.182Z,84.54
2022-09-12T23:38:58.644Z,84.52
2022-09-12T23:41:27.192Z,84.69
2022-09-12T23:43:54.664Z,84.69
2022-09-12T23:46:22.340Z,84.76
2022-09-12T23:48:49.929Z,85.26
2022-09-12T23:51:17.465Z,84.76
2022-09-12T23:53:44.973Z,84.97
2022-09-12T23:56:12.398Z,85.25
2022-09-12T23:58:39.835Z,85.19
